地図

経路データ

SID SEASON NUMBER BASIN SUBBASIN NAME ISO_TIME NATURE LAT LON WMO_WIND WMO_PRES WMO_AGENCY TRACK_TYPE DIST2LAND LANDFALL IFLAG USA_AGENCY USA_ATCF_ID USA_LAT USA_LON USA_RECORD USA_STATUS USA_WIND USA_PRES USA_SSHS USA_R34_NE USA_R34_SE USA_R34_SW USA_R34_NW USA_R50_NE USA_R50_SE USA_R50_SW USA_R50_NW USA_R64_NE USA_R64_SE USA_R64_SW USA_R64_NW USA_POCI USA_ROCI USA_RMW USA_EYE TOKYO_LAT TOKYO_LON TOKYO_GRADE TOKYO_WIND TOKYO_PRES TOKYO_R50_DIR TOKYO_R50_LONG TOKYO_R50_SHORT TOKYO_R30_DIR TOKYO_R30_LONG TOKYO_R30_SHORT TOKYO_LAND CMA_LAT CMA_LON CMA_CAT CMA_WIND CMA_PRES HKO_LAT HKO_LON HKO_CAT HKO_WIND HKO_PRES NEWDELHI_LAT NEWDELHI_LON NEWDELHI_GRADE NEWDELHI_WIND NEWDELHI_PRES NEWDELHI_CI NEWDELHI_DP NEWDELHI_POCI REUNION_LAT REUNION_LON REUNION_TYPE REUNION_WIND REUNION_PRES REUNION_TNUM REUNION_CI REUNION_RMW REUNION_R34_NE REUNION_R34_SE REUNION_R34_SW REUNION_R34_NW REUNION_R50_NE REUNION_R50_SE REUNION_R50_SW REUNION_R50_NW REUNION_R64_NE REUNION_R64_SE REUNION_R64_SW REUNION_R64_NW BOM_LAT BOM_LON BOM_TYPE BOM_WIND BOM_PRES BOM_TNUM BOM_CI BOM_RMW BOM_R34_NE BOM_R34_SE BOM_R34_SW BOM_R34_NW BOM_R50_NE BOM_R50_SE BOM_R50_SW BOM_R50_NW BOM_R64_NE BOM_R64_SE BOM_R64_SW BOM_R64_NW BOM_ROCI BOM_POCI BOM_EYE BOM_POS_METHOD BOM_PRES_METHOD NADI_LAT NADI_LON NADI_CAT NADI_WIND NADI_PRES WELLINGTON_LAT WELLINGTON_LON WELLINGTON_WIND WELLINGTON_PRES DS824_LAT DS824_LON DS824_STAGE DS824_WIND DS824_PRES TD9636_LAT TD9636_LON TD9636_STAGE TD9636_WIND TD9636_PRES TD9635_LAT TD9635_LON TD9635_WIND TD9635_PRES TD9635_ROCI NEUMANN_LAT NEUMANN_LON NEUMANN_CLASS NEUMANN_WIND NEUMANN_PRES MLC_LAT MLC_LON MLC_CLASS MLC_WIND MLC_PRES USA_GUST BOM_GUST BOM_GUST_PER REUNION_GUST REUNION_GUST_PER USA_SEAHGT USA_SEARAD_NE USA_SEARAD_SE USA_SEARAD_SW USA_SEARAD_NW STORM_SPEED STORM_DIR
1945319N10119 1945 76 WP MM YVONNE 1945-11-14 12:00:00 TS 9.80000 118.800 main 0 0 O________OOO__ jtwc_wp WP251945 9.80000 118.800 25 -1 9.80000 118.800 TC 25 9.80000 118.800 1 25 9.80000 118.800 25 1002 300 10 294
1945319N10119 1945 76 WP MM YVONNE 1945-11-14 15:00:00 TS 10.0015 118.349 main 39 39 P________PPP__ WP251945 9.99762 118.350 25 -1 9.99762 118.350 TC 25 10.0130 118.344 1 26 9.99762 118.350 25 1002 270 10 295
1945319N10119 1945 76 WP MM YVONNE 1945-11-14 18:00:00 TS 10.2051 117.898 main 86 86 O________OPO__ jtwc_wp WP251945 10.2000 117.900 25 -1 10.2000 117.900 TC 25 10.2205 117.891 1 27 10.2000 117.900 25 1002 240 10 295
1945319N10119 1945 76 WP MM YVONNE 1945-11-14 21:00:00 TS 10.4100 117.448 main 141 141 P________PPP__ WP251945 10.4074 117.450 27 -1 10.4074 117.450 TC 27 10.4178 117.442 1 28 10.4074 117.450 27 1001 240 10 294
1945319N10119 1945 76 WP MM YVONNE 1945-11-15 00:00:00 TS 10.6000 117.000 main 179 179 O________OOO__ jtwc_wp WP251945 10.6000 117.000 30 -1 10.6000 117.000 TC 30 10.6000 117.000 1 30 10.6000 117.000 30 1001 240 10 291
1945319N10119 1945 76 WP MM YVONNE 1945-11-15 03:00:00 TS 10.7539 116.549 main 228 228 P________PPP__ WP251945 10.7500 116.542 30 -1 10.7500 116.542 TC 30 10.7657 116.567 1 31 10.7500 116.542 30 1000 240 9 289
1945319N10119 1945 76 WP MM YVONNE 1945-11-15 06:00:00 TS 10.9068 116.110 main 266 266 O________OPO__ jtwc_wp WP251945 10.9000 116.100 30 -1 10.9000 116.100 TC 30 10.9272 116.142 1 32 10.9000 116.100 30 1000 240 9 291
1945319N10119 1945 76 WP MM YVONNE 1945-11-15 09:00:00 TS 11.0774 115.711 main 313 313 P________PPP__ WP251945 11.0699 115.707 32 -1 11.0699 115.707 TC 32 11.1001 115.721 1 33 11.0699 115.707 32 1000 240 9 296
1945319N10119 1945 76 WP MM YVONNE 1945-11-15 12:00:00 TS 11.3000 115.300 main 360 360 O________OOO__ jtwc_wp WP251945 11.3000 115.300 35 0 11.3000 115.300 TC 35 11.3000 115.300 2 35 11.3000 115.300 35 1000 240 10 302
1945319N10119 1945 76 WP MM YVONNE 1945-11-15 15:00:00 TS 11.6291 114.818 main 422 422 P________PPP__ WP251945 11.6501 114.793 35 0 11.6501 114.793 TC 35 11.5662 114.895 2 35 11.6501 114.793 35 999 240 11 305
1945319N10119 1945 76 WP MM YVONNE 1945-11-15 18:00:00 TS 11.9642 114.347 main 493 491 O________OPO__ jtwc_wp WP251945 12.0000 114.300 35 0 12.0000 114.300 TC 35 11.8569 114.488 2 35 12.0000 114.300 35 999 240 10 305
1945319N10119 1945 76 WP MM YVONNE 1945-11-15 21:00:00 TS 12.2084 113.966 main 491 445 P________PPP__ WP251945 12.2298 113.935 35 0 12.2298 113.935 TC 35 12.1442 114.061 2 35 12.2298 113.935 35 999 270 9 301
1945319N10119 1945 76 WP MM YVONNE 1945-11-16 00:00:00 TS 12.4000 113.600 main 445 401 O________OOO__ jtwc_wp WP251945 12.4000 113.600 35 0 12.4000 113.600 TC 35 12.4000 113.600 2 35 12.4000 113.600 35 999 300 8 296
1945319N10119 1945 76 WP MM YVONNE 1945-11-16 03:00:00 TS 12.5664 113.211 main 401 358 P________PPP__ WP251945 12.5572 113.252 37 0 12.5572 113.252 TC 37 12.5940 113.086 2 36 12.5572 113.252 37 999 270 9 290
1945319N10119 1945 76 WP MM YVONNE 1945-11-16 06:00:00 TS 12.7131 112.734 main 347 282 O________OPO__ jtwc_wp WP251945 12.7000 112.800 40 0 12.7000 112.800 TC 40 12.7525 112.537 2 37 12.7000 112.800 40 999 240 11 285
1945319N10119 1945 76 WP MM YVONNE 1945-11-16 09:00:00 TS 12.8533 112.079 main 281 206 P________PPP__ WP251945 12.8428 112.115 40 0 12.8428 112.115 TC 40 12.8846 111.970 2 38 12.8428 112.115 40 999 240 13 282
1945319N10119 1945 76 WP MM YVONNE 1945-11-16 12:00:00 TS 13.0000 111.400 main 206 155 O________OOO__ jtwc_wp WP251945 13.0000 111.400 40 0 13.0000 111.400 TC 40 13.0000 111.400 2 40 13.0000 111.400 40 999 240 12 286
1945319N10119 1945 76 WP MM YVONNE 1945-11-16 15:00:00 TS 13.1933 110.874 main 155 107 P________PPP__ WP251945 13.2221 110.885 40 0 13.2221 110.885 TC 40 13.1069 110.839 2 38 13.2221 110.885 40 999 210 11 289
1945319N10119 1945 76 WP MM YVONNE 1945-11-16 18:00:00 TS 13.3520 110.372 main 112 54 O________OPO__ jtwc_wp WP251945 13.4000 110.400 40 0 13.4000 110.400 TC 40 13.2082 110.288 2 37 13.4000 110.400 40 1000 180 11 282
1945319N10119 1945 76 WP MM YVONNE 1945-11-16 21:00:00 TS 13.4086 109.808 main 54 0 P________PPP__ WP251945 13.4430 109.830 37 0 13.4430 109.830 TC 37 13.3054 109.743 2 36 13.4430 109.830 37 1000 180 11 272
1945319N10119 1945 76 WP MM YVONNE 1945-11-17 00:00:00 TS 13.4000 109.200 main 0 O________OOO__ jtwc_wp WP251945 13.4000 109.200 35 0 13.4000 109.200 TC 35 13.4000 109.200 2 35 13.4000 109.200 35 1001 180 12 269

デジタル台風データ・検索

IBTrACS Databaseについて

本データベースは、米国NOAAが公開する1842年以降の世界の熱帯低気圧のベストトラックデータアーカイブInternational Best Track Archive for Climate Stewardship (IBTrACS)を、ウェブで閲覧しやすい形式に変換したものです。

最終更新日:2021-11-26